createdAt,value
2019-02-15T00:00:02.258Z,0.00
2019-02-15T00:01:34.066Z,0.00
2019-02-15T00:03:05.879Z,0.00
2019-02-15T00:04:37.692Z,0.00
2019-02-15T00:06:09.505Z,0.00
2019-02-15T00:07:41.319Z,0.00
2019-02-15T00:09:13.132Z,0.00
2019-02-15T00:10:44.944Z,0.00
2019-02-15T00:12:16.757Z,0.00
2019-02-15T00:13:48.671Z,0.00
2019-02-15T00:15:20.384Z,0.00
2019-02-15T00:16:52.197Z,0.00
2019-02-15T00:18:24.011Z,0.00
2019-02-15T00:19:55.854Z,0.00
2019-02-15T00:21:27.636Z,0.00
2019-02-15T00:22:59.504Z,0.00
2019-02-15T00:24:31.364Z,0.00
2019-02-15T00:26:03.075Z,0.00
2019-02-15T00:27:34.889Z,0.00
2019-02-15T00:29:06.709Z,0.00
2019-02-15T00:30:38.515Z,0.00
2019-02-15T00:32:10.638Z,0.00
2019-02-15T00:33:42.166Z,0.00
2019-02-15T00:35:13.996Z,0.00
2019-02-15T00:36:45.769Z,0.00
2019-02-15T00:38:17.583Z,0.00
2019-02-15T00:39:49.396Z,0.00
2019-02-15T00:41:21.214Z,0.00
2019-02-15T00:42:53.022Z,0.00
2019-02-15T00:44:24.837Z,0.00
2019-02-15T00:45:57.053Z,0.00
2019-02-15T00:47:28.462Z,0.00
2019-02-15T00:49:00.275Z,0.00
2019-02-15T00:50:32.239Z,0.00
2019-02-15T00:52:03.947Z,0.00
2019-02-15T00:53:35.715Z,0.00
2019-02-15T00:55:07.530Z,0.00
2019-02-15T00:56:39.341Z,0.00
2019-02-15T00:58:11.155Z,0.00
2019-02-15T00:59:42.968Z,0.00
2019-02-15T01:01:14.781Z,0.00
2019-02-15T01:02:46.594Z,0.00
2019-02-15T01:04:18.412Z,0.00
2019-02-15T01:05:50.220Z,0.00
2019-02-15T01:07:22.033Z,0.00
2019-02-15T01:08:53.946Z,0.00
2019-02-15T01:10:25.659Z,0.00
2019-02-15T01:11:57.473Z,0.00
2019-02-15T01:13:31.149Z,0.00
2019-02-15T01:15:01.098Z,0.00
2019-02-15T01:16:32.911Z,0.00
2019-02-15T01:18:04.724Z,0.00
2019-02-15T01:19:36.537Z,0.00
2019-02-15T01:21:08.350Z,0.00
2019-02-15T01:22:40.162Z,0.00
2019-02-15T01:24:11.977Z,0.00
2019-02-15T01:25:43.787Z,0.00
2019-02-15T01:27:15.705Z,0.00
2019-02-15T01:28:47.412Z,0.00
2019-02-15T01:30:19.225Z,0.00
2019-02-15T01:31:51.039Z,0.00
2019-02-15T01:33:22.850Z,0.00
2019-02-15T01:34:54.664Z,0.00
2019-02-15T01:36:26.476Z,0.00
2019-02-15T01:37:58.290Z,0.00
2019-02-15T01:39:30.103Z,0.00
2019-02-15T01:41:01.914Z,0.00
2019-02-15T01:42:33.727Z,0.00
2019-02-15T01:44:05.540Z,0.00
2019-02-15T01:45:42.072Z,0.00
2019-02-15T01:47:09.172Z,0.00
2019-02-15T01:48:40.979Z,0.00
2019-02-15T01:50:12.791Z,0.00
2019-02-15T01:51:44.603Z,0.00
2019-02-15T01:53:16.420Z,0.00
2019-02-15T01:54:48.533Z,0.00
2019-02-15T01:56:20.041Z,0.00
2019-02-15T01:57:51.853Z,0.00
2019-02-15T01:59:23.666Z,0.00
2019-02-15T02:00:55.484Z,0.00
2019-02-15T02:02:27.292Z,0.00
2019-02-15T02:03:59.213Z,0.00
2019-02-15T02:05:30.919Z,0.00
2019-02-15T02:07:02.732Z,0.00
2019-02-15T02:08:34.544Z,0.00
2019-02-15T02:10:06.358Z,0.00
2019-02-15T02:11:38.172Z,0.00
2019-02-15T02:13:09.984Z,0.00
2019-02-15T02:14:41.798Z,0.00
2019-02-15T02:16:13.611Z,0.00
2019-02-15T02:17:45.429Z,0.00
2019-02-15T02:19:17.237Z,0.00
2019-02-15T02:20:49.050Z,0.00
2019-02-15T02:22:21.014Z,0.00
2019-02-15T02:23:52.677Z,0.00
2019-02-15T02:25:24.490Z,0.00
2019-02-15T02:26:56.305Z,0.00
2019-02-15T02:28:28.116Z,0.00
2019-02-15T02:29:59.935Z,0.00
2019-02-15T02:31:31.743Z,0.00
2019-02-15T02:33:03.556Z,0.00
2019-02-15T02:34:35.369Z,0.00
2019-02-15T02:36:07.213Z,0.00
2019-02-15T02:37:38.994Z,0.00
2019-02-15T02:39:10.808Z,0.00
2019-02-15T02:40:42.831Z,0.00
2019-02-15T02:42:14.437Z,0.00
2019-02-15T02:43:46.246Z,0.00
2019-02-15T02:45:18.059Z,0.00
2019-02-15T02:46:49.877Z,0.00
2019-02-15T02:48:21.686Z,0.00
2019-02-15T02:49:53.617Z,0.00
2019-02-15T02:51:25.312Z,0.00
2019-02-15T02:52:57.124Z,0.00
2019-02-15T02:54:28.942Z,0.00
2019-02-15T02:56:00.753Z,0.00
2019-02-15T02:57:32.570Z,0.00
2019-02-15T02:59:04.476Z,0.00
2019-02-15T03:00:36.192Z,0.00
2019-02-15T03:02:08.025Z,0.00
2019-02-15T03:03:39.816Z,0.00
2019-02-15T03:05:11.629Z,0.00
2019-02-15T03:06:43.452Z,0.00
2019-02-15T03:08:15.260Z,0.00
2019-02-15T03:09:47.068Z,0.00
2019-02-15T03:11:18.881Z,0.00
2019-02-15T03:12:50.712Z,0.00
2019-02-15T03:14:22.507Z,0.00
2019-02-15T03:15:54.321Z,0.00
2019-02-15T03:17:26.388Z,0.00
2019-02-15T03:18:57.946Z,0.00
2019-02-15T03:20:31.607Z,0.00
2019-02-15T03:22:01.572Z,0.00
2019-02-15T03:23:33.386Z,0.00
2019-02-15T03:25:05.199Z,0.00
2019-02-15T03:26:37.017Z,0.00
2019-02-15T03:28:08.823Z,0.00
2019-02-15T03:29:40.637Z,0.00
2019-02-15T03:31:12.457Z,0.00
2019-02-15T03:32:44.267Z,0.00
2019-02-15T03:34:16.074Z,0.00
2019-02-15T03:35:48.291Z,0.00
2019-02-15T03:37:19.698Z,0.00
2019-02-15T03:38:51.511Z,0.00
2019-02-15T03:40:23.344Z,0.00
2019-02-15T03:41:55.139Z,0.00
2019-02-15T03:43:26.948Z,0.00
2019-02-15T03:44:58.789Z,0.00
2019-02-15T03:46:30.575Z,0.00
2019-02-15T03:48:02.389Z,0.00
2019-02-15T03:49:34.199Z,0.00
2019-02-15T03:51:06.013Z,0.00
2019-02-15T03:52:37.824Z,0.00
2019-02-15T03:54:09.739Z,0.00
2019-02-15T03:55:41.450Z,0.00
2019-02-15T03:57:13.269Z,0.00
2019-02-15T03:58:45.074Z,0.00
2019-02-15T04:00:16.887Z,0.00
2019-02-15T04:01:48.700Z,0.00
2019-02-15T04:03:20.513Z,0.00
2019-02-15T04:04:52.324Z,0.00
2019-02-15T04:06:24.137Z,0.00
2019-02-15T04:07:55.949Z,0.00
2019-02-15T04:09:27.763Z,0.00
2019-02-15T04:10:59.576Z,0.00
2019-02-15T04:12:32.338Z,0.00
2019-02-15T04:14:03.203Z,0.00
2019-02-15T04:15:35.013Z,0.00
2019-02-15T04:17:06.831Z,0.00
2019-02-15T04:18:38.639Z,0.00
2019-02-15T04:20:10.452Z,0.00
2019-02-15T04:21:42.264Z,0.00
2019-02-15T04:23:14.077Z,0.00
2019-02-15T04:24:45.902Z,0.00
2019-02-15T04:26:17.705Z,0.00
2019-02-15T04:27:49.515Z,0.00
2019-02-15T04:29:21.327Z,0.00
2019-02-15T04:30:53.251Z,0.00
2019-02-15T04:32:24.959Z,0.00
2019-02-15T04:33:56.769Z,0.00
2019-02-15T04:35:28.579Z,0.00
2019-02-15T04:37:00.392Z,0.00
2019-02-15T04:38:32.206Z,0.00
2019-02-15T04:40:04.017Z,0.00
2019-02-15T04:41:35.829Z,0.00
2019-02-15T04:43:07.659Z,0.00
2019-02-15T04:44:42.801Z,0.00
2019-02-15T04:46:11.270Z,0.00
2019-02-15T04:47:43.086Z,0.00
2019-02-15T04:49:14.994Z,0.00
2019-02-15T04:50:46.706Z,0.00
2019-02-15T04:52:18.519Z,0.00
2019-02-15T04:53:50.332Z,0.00
2019-02-15T04:55:22.144Z,0.00
2019-02-15T04:56:53.958Z,0.00
2019-02-15T04:58:25.769Z,0.00
2019-02-15T04:59:57.583Z,0.00
2019-02-15T05:01:29.416Z,0.00
2019-02-15T05:03:01.208Z,0.00
2019-02-15T05:04:33.021Z,0.00
2019-02-15T05:06:04.834Z,0.00
2019-02-15T05:07:36.746Z,0.00
2019-02-15T05:09:08.463Z,0.00
2019-02-15T05:10:40.273Z,0.00
2019-02-15T05:12:12.086Z,0.00
2019-02-15T05:13:43.905Z,0.00
2019-02-15T05:15:15.713Z,0.00
2019-02-15T05:16:47.522Z,0.00
2019-02-15T05:18:19.336Z,0.00
2019-02-15T05:19:51.249Z,0.00
2019-02-15T05:21:22.961Z,0.00
2019-02-15T05:22:54.773Z,0.00
2019-02-15T05:24:26.587Z,0.00
2019-02-15T05:25:58.498Z,0.00
2019-02-15T05:27:30.212Z,0.00
2019-02-15T05:29:02.024Z,0.00
2019-02-15T05:30:33.843Z,0.00
2019-02-15T05:32:05.648Z,0.00
2019-02-15T05:33:37.462Z,0.00
2019-02-15T05:35:09.276Z,0.00
2019-02-15T05:36:41.086Z,0.00
2019-02-15T05:38:12.901Z,0.00
2019-02-15T05:39:44.715Z,0.00
2019-02-15T05:41:16.524Z,0.00
2019-02-15T05:44:20.249Z,0.00
2019-02-15T05:45:51.961Z,0.00
2019-02-15T05:47:23.776Z,0.00
2019-02-15T05:48:55.585Z,0.00
2019-02-15T05:50:27.650Z,0.00
2019-02-15T05:51:59.214Z,0.00
2019-02-15T05:53:31.021Z,0.00
2019-02-15T05:55:02.834Z,0.00
2019-02-15T05:56:34.648Z,0.00
2019-02-15T05:58:06.464Z,0.00
2019-02-15T05:59:38.271Z,0.00
2019-02-15T06:01:10.094Z,0.00
2019-02-15T06:02:41.995Z,0.00
2019-02-15T06:04:13.709Z,0.00
2019-02-15T06:05:45.523Z,0.00
2019-02-15T06:07:17.340Z,0.00
2019-02-15T06:08:49.145Z,0.00
2019-02-15T06:10:20.958Z,0.00
2019-02-15T06:11:52.769Z,0.00
2019-02-15T06:13:24.585Z,0.00
2019-02-15T06:14:56.395Z,0.00
2019-02-15T06:16:28.205Z,0.00
2019-02-15T06:18:00.018Z,0.00
2019-02-15T06:19:31.830Z,0.00
2019-02-15T06:21:03.893Z,0.00
2019-02-15T06:22:35.457Z,0.00
2019-02-15T06:24:07.275Z,0.00
2019-02-15T06:25:39.081Z,0.00
2019-02-15T06:27:10.894Z,0.00
2019-02-15T06:28:42.705Z,0.00
2019-02-15T06:30:14.518Z,0.00
2019-02-15T06:31:46.327Z,0.00
2019-02-15T06:33:18.140Z,0.00
2019-02-15T06:34:49.968Z,0.00
2019-02-15T06:36:21.764Z,0.00
2019-02-15T06:37:53.576Z,0.00
2019-02-15T06:39:25.665Z,0.00
2019-02-15T06:40:57.200Z,0.00
2019-02-15T06:42:29.025Z,0.00
2019-02-15T06:44:00.825Z,0.00
2019-02-15T06:45:32.648Z,0.00
2019-02-15T06:47:04.449Z,0.00
2019-02-15T06:48:36.264Z,0.00
2019-02-15T06:50:08.073Z,0.00
2019-02-15T06:51:40.145Z,0.00
2019-02-15T06:53:11.697Z,0.00
2019-02-15T06:54:43.509Z,0.00
2019-02-15T06:56:15.321Z,0.00
2019-02-15T06:57:47.233Z,0.00
2019-02-15T06:59:18.946Z,0.00
2019-02-15T07:00:50.757Z,0.00
2019-02-15T07:02:22.570Z,0.00
2019-02-15T07:03:54.384Z,0.00
2019-02-15T07:05:26.198Z,0.00
2019-02-15T07:06:58.010Z,0.00
2019-02-15T07:08:29.818Z,0.00
2019-02-15T07:10:01.638Z,0.00
2019-02-15T07:11:33.442Z,0.00
2019-02-15T07:13:05.254Z,0.00
2019-02-15T07:14:37.067Z,0.00
2019-02-15T07:16:08.983Z,0.00
2019-02-15T07:17:40.690Z,0.00
2019-02-15T07:19:12.502Z,0.00
2019-02-15T07:20:44.314Z,0.00
2019-02-15T07:22:16.126Z,0.00
2019-02-15T07:23:47.938Z,0.00
2019-02-15T07:25:19.750Z,0.00
2019-02-15T07:26:51.562Z,0.00
2019-02-15T07:28:23.374Z,0.00
2019-02-15T07:29:55.189Z,0.00
2019-02-15T07:31:26.998Z,0.00
2019-02-15T07:32:58.809Z,0.00
2019-02-15T07:34:30.725Z,0.00
2019-02-15T07:36:02.435Z,0.00
2019-02-15T07:37:34.246Z,0.00
2019-02-15T07:39:06.059Z,0.00
2019-02-15T07:40:37.870Z,0.00
2019-02-15T07:42:09.682Z,0.00
2019-02-15T07:43:41.494Z,0.00
2019-02-15T07:45:13.307Z,0.00
2019-02-15T07:46:45.119Z,0.00
2019-02-15T07:48:16.932Z,0.00
2019-02-15T07:49:48.743Z,0.00
2019-02-15T07:51:20.555Z,0.00
2019-02-15T07:52:52.767Z,0.00
2019-02-15T07:54:24.178Z,0.00
2019-02-15T07:55:55.990Z,0.00
2019-02-15T07:57:27.805Z,0.00
2019-02-15T07:58:59.614Z,0.00
2019-02-15T08:00:31.427Z,0.00
2019-02-15T08:02:03.273Z,0.00
2019-02-15T08:03:35.050Z,0.00
2019-02-15T08:05:06.864Z,0.00
2019-02-15T08:06:38.674Z,0.00
2019-02-15T08:08:10.485Z,0.00
2019-02-15T08:09:42.299Z,0.00
2019-02-15T08:11:14.220Z,0.00
2019-02-15T08:12:45.939Z,0.00
2019-02-15T08:14:17.826Z,0.00
2019-02-15T08:15:52.062Z,0.00
2019-02-15T08:17:21.372Z,0.00
2019-02-15T08:18:53.168Z,0.00
2019-02-15T08:20:24.980Z,0.00
2019-02-15T08:21:56.791Z,0.00
2019-02-15T08:23:28.605Z,0.00
2019-02-15T08:25:02.774Z,0.00
2019-02-15T08:26:32.227Z,0.00
2019-02-15T08:28:04.040Z,0.00
2019-02-15T08:29:36.455Z,0.00
2019-02-15T08:31:07.663Z,0.00
2019-02-15T08:32:39.474Z,0.00
2019-02-15T08:34:11.287Z,0.00
2019-02-15T08:35:43.101Z,0.00
2019-02-15T08:37:14.910Z,0.00
2019-02-15T08:38:46.722Z,0.00
2019-02-15T08:40:18.534Z,0.00
2019-02-15T08:42:01.185Z,0.00
2019-02-15T08:43:22.158Z,0.00
2019-02-15T08:44:54.002Z,0.00
2019-02-15T08:46:25.790Z,0.00
2019-02-15T08:47:57.742Z,0.00
2019-02-15T08:49:29.408Z,5.63
2019-02-15T08:51:01.266Z,5.63
2019-02-15T08:52:33.028Z,5.63
2019-02-15T08:54:04.850Z,11.25
2019-02-15T08:55:36.879Z,11.25
2019-02-15T08:57:08.462Z,16.88
2019-02-15T08:58:40.273Z,22.50
2019-02-15T09:00:12.085Z,28.13
2019-02-15T09:01:43.974Z,33.75
2019-02-15T09:03:15.711Z,45.00
2019-02-15T09:04:47.571Z,50.63
2019-02-15T09:06:19.434Z,56.25
2019-02-15T09:07:51.172Z,67.50
2019-02-15T09:09:23.015Z,78.75
2019-02-15T09:10:54.768Z,84.38
2019-02-15T09:12:26.611Z,95.63
2019-02-15T09:13:58.396Z,106.88
2019-02-15T09:15:30.240Z,112.50
2019-02-15T09:17:02.220Z,118.13
2019-02-15T09:18:35.435Z,129.38
2019-02-15T09:20:05.783Z,129.38
2019-02-15T09:21:38.671Z,146.25
2019-02-15T09:23:09.410Z,157.50
2019-02-15T09:24:41.178Z,168.75
2019-02-15T09:26:18.175Z,180.00
2019-02-15T09:29:16.845Z,191.25
2019-02-15T09:30:48.665Z,196.88
2019-02-15T09:32:20.322Z,208.13
2019-02-15T09:33:52.258Z,208.13
2019-02-15T09:35:23.767Z,213.75
2019-02-15T09:36:55.768Z,219.38
2019-02-15T09:41:31.162Z,236.25
2019-02-15T09:43:02.976Z,241.88
2019-02-15T09:44:34.736Z,253.13
2019-02-15T09:46:06.459Z,258.75
2019-02-15T09:47:38.275Z,270.00
2019-02-15T09:49:10.203Z,281.25
2019-02-15T09:50:42.147Z,292.50
2019-02-15T09:55:17.623Z,315.00
2019-02-15T09:56:49.360Z,337.50
2019-02-15T09:58:21.061Z,354.38
2019-02-15T09:59:52.784Z,365.63
2019-02-15T10:01:25.997Z,371.25
2019-02-15T10:02:56.616Z,365.63
2019-02-15T10:04:28.454Z,365.63
2019-02-15T10:06:00.823Z,399.38
2019-02-15T10:07:33.122Z,376.88
2019-02-15T10:09:04.017Z,388.13
2019-02-15T10:10:36.826Z,393.75
2019-02-15T10:12:07.380Z,405.00
2019-02-15T10:13:40.382Z,382.50
2019-02-15T10:15:11.109Z,455.63
2019-02-15T10:16:42.918Z,438.75
2019-02-15T10:18:14.898Z,534.38
2019-02-15T10:22:50.466Z,624.38
2019-02-15T10:25:54.674Z,607.50
2019-02-15T10:28:57.350Z,618.75
2019-02-15T10:30:29.145Z,669.38
2019-02-15T10:32:00.934Z,686.25
2019-02-15T10:33:33.926Z,697.50
2019-02-15T10:38:08.843Z,720.00
2019-02-15T10:39:40.602Z,658.13
2019-02-15T10:41:12.150Z,697.50
2019-02-15T10:42:44.023Z,607.50
2019-02-15T10:44:16.512Z,720.00
2019-02-15T10:45:47.719Z,731.25
2019-02-15T10:47:24.971Z,675.00
2019-02-15T10:50:22.980Z,613.13
2019-02-15T10:51:55.037Z,601.88
2019-02-15T10:53:27.018Z,596.25
2019-02-15T10:54:58.269Z,641.25
2019-02-15T10:56:31.210Z,489.38
2019-02-15T10:58:01.899Z,393.75
2019-02-15T10:59:34.199Z,466.88
2019-02-15T11:01:05.786Z,472.50
2019-02-15T11:02:37.411Z,540.00
2019-02-15T11:04:09.357Z,624.38
2019-02-15T11:05:40.941Z,652.50
2019-02-15T11:07:12.885Z,708.75
2019-02-15T11:08:44.779Z,765.00
2019-02-15T11:10:16.383Z,793.13
2019-02-15T11:13:20.453Z,742.50
2019-02-15T11:16:23.996Z,669.38
2019-02-15T11:19:28.755Z,433.13
2019-02-15T11:20:59.689Z,393.75
2019-02-15T11:22:32.323Z,416.25
2019-02-15T11:24:04.582Z,461.25
2019-02-15T11:25:35.356Z,540.00
2019-02-15T11:27:06.467Z,618.75
2019-02-15T11:30:10.752Z,765.00
2019-02-15T11:31:41.915Z,663.75
2019-02-15T11:33:15.219Z,523.13
2019-02-15T11:34:45.507Z,523.13
2019-02-15T11:36:17.703Z,495.00
2019-02-15T11:37:49.094Z,455.63
2019-02-15T11:39:20.959Z,466.88
2019-02-15T11:40:52.725Z,495.00
2019-02-15T11:42:24.827Z,444.38
2019-02-15T11:43:56.848Z,421.88
2019-02-15T11:45:28.179Z,410.63
2019-02-15T11:48:31.812Z,393.75
2019-02-15T11:50:03.629Z,365.63
2019-02-15T11:51:35.443Z,326.25
2019-02-15T11:53:07.387Z,298.13
2019-02-15T11:54:39.348Z,298.13
2019-02-15T11:56:10.935Z,303.75
2019-02-15T11:57:42.761Z,315.00
2019-02-15T11:59:14.524Z,337.50
2019-02-15T12:00:46.814Z,365.63
2019-02-15T12:02:18.165Z,326.25
2019-02-15T12:03:50.218Z,292.50
2019-02-15T12:05:21.789Z,281.25
2019-02-15T12:06:53.936Z,286.88
2019-02-15T12:08:25.507Z,292.50
2019-02-15T12:09:57.286Z,275.63
2019-02-15T12:11:30.259Z,275.63
2019-02-15T12:13:01.227Z,298.13
2019-02-15T12:14:32.732Z,331.88
2019-02-15T12:17:36.707Z,410.63
2019-02-15T12:20:40.148Z,500.63
2019-02-15T12:22:11.820Z,489.38
2019-02-15T12:23:43.629Z,472.50
2019-02-15T12:25:15.514Z,500.63
2019-02-15T12:26:47.517Z,534.38
2019-02-15T12:28:19.217Z,590.63
2019-02-15T12:29:50.991Z,635.63
2019-02-15T12:31:22.792Z,697.50
2019-02-15T12:32:54.669Z,635.63
2019-02-15T12:34:26.289Z,551.25
2019-02-15T12:35:58.430Z,506.25
2019-02-15T12:37:29.920Z,489.38
2019-02-15T12:39:01.926Z,545.63
2019-02-15T12:40:33.617Z,534.38
2019-02-15T12:43:37.251Z,427.50
2019-02-15T12:45:09.006Z,405.00
2019-02-15T12:46:40.818Z,410.63
2019-02-15T12:51:16.531Z,495.00
2019-02-15T12:52:48.284Z,478.13
2019-02-15T12:54:20.133Z,450.00
2019-02-15T12:55:51.716Z,450.00
2019-02-15T12:57:23.528Z,444.38
2019-02-15T12:58:55.402Z,444.38
2019-02-15T13:01:59.065Z,399.38
2019-02-15T13:05:02.986Z,421.88
2019-02-15T13:06:34.485Z,433.13
2019-02-15T13:08:06.773Z,433.13
2019-02-15T13:09:38.264Z,376.88
2019-02-15T13:11:10.503Z,371.25
2019-02-15T13:12:43.333Z,393.75
2019-02-15T13:14:14.097Z,427.50
2019-02-15T13:15:46.146Z,433.13
2019-02-15T13:17:24.480Z,433.13
2019-02-15T13:18:49.404Z,382.50
2019-02-15T13:20:20.789Z,326.25
2019-02-15T13:21:53.260Z,320.63
2019-02-15T13:23:25.569Z,331.88
2019-02-15T13:24:57.404Z,326.25
2019-02-15T13:26:29.684Z,298.13
2019-02-15T13:28:00.698Z,309.38
2019-02-15T13:29:33.059Z,326.25
2019-02-15T13:31:05.569Z,331.88
2019-02-15T13:32:35.865Z,348.75
2019-02-15T13:34:08.283Z,416.25
2019-02-15T13:35:39.840Z,455.63
2019-02-15T13:37:11.539Z,416.25
2019-02-15T13:38:43.525Z,416.25
2019-02-15T13:40:15.295Z,444.38
2019-02-15T13:43:19.586Z,511.88
2019-02-15T13:44:51.988Z,500.63
2019-02-15T13:46:23.841Z,489.38
2019-02-15T13:47:56.673Z,433.13
2019-02-15T13:49:27.316Z,405.00
2019-02-15T13:50:59.230Z,348.75
2019-02-15T13:52:30.492Z,343.13
2019-02-15T13:54:02.273Z,371.25
2019-02-15T13:55:33.719Z,427.50
2019-02-15T13:57:05.112Z,444.38
2019-02-15T13:58:37.618Z,427.50
2019-02-15T14:00:08.486Z,405.00
2019-02-15T14:01:41.897Z,405.00
2019-02-15T14:03:11.932Z,466.88
2019-02-15T14:04:43.863Z,551.25
2019-02-15T14:06:16.551Z,613.13
2019-02-15T14:07:48.074Z,669.38
2019-02-15T14:09:19.611Z,556.88
2019-02-15T14:10:51.268Z,489.38
2019-02-15T14:12:23.342Z,478.13
2019-02-15T14:13:55.167Z,444.38
2019-02-15T14:15:27.106Z,421.88
2019-02-15T14:16:58.532Z,438.75
2019-02-15T14:18:32.018Z,478.13
2019-02-15T14:20:03.113Z,528.75
2019-02-15T14:21:33.795Z,534.38
2019-02-15T14:23:05.186Z,540.00
2019-02-15T14:27:41.007Z,461.25
2019-02-15T14:29:12.565Z,478.13
2019-02-15T14:30:44.701Z,472.50
2019-02-15T14:32:16.846Z,416.25
2019-02-15T14:33:48.256Z,382.50
2019-02-15T14:35:19.915Z,376.88
2019-02-15T14:38:25.434Z,365.63
2019-02-15T14:39:55.638Z,410.63
2019-02-15T14:41:27.277Z,438.75
2019-02-15T14:43:00.474Z,506.25
2019-02-15T14:44:30.999Z,618.75
2019-02-15T14:46:03.315Z,630.00
2019-02-15T14:47:34.518Z,652.50
2019-02-15T14:49:06.837Z,652.50
2019-02-15T14:50:38.476Z,725.63
2019-02-15T14:52:10.441Z,793.13
2019-02-15T14:53:42.720Z,821.25
2019-02-15T14:55:13.871Z,984.38
2019-02-15T14:56:45.528Z,990.00
2019-02-15T14:59:50.158Z,1108.13
2019-02-15T15:01:20.563Z,1125.00
2019-02-15T15:02:52.938Z,1136.25
2019-02-15T15:04:24.637Z,1080.00
2019-02-15T15:05:56.619Z,1040.63
2019-02-15T15:07:28.301Z,1299.38
2019-02-15T15:08:59.658Z,1361.25
2019-02-15T15:10:31.801Z,1310.63
2019-02-15T15:12:03.286Z,1248.75
2019-02-15T15:13:35.438Z,1237.50
2019-02-15T15:15:06.922Z,1226.25
2019-02-15T15:16:39.117Z,1130.63
2019-02-15T15:19:42.377Z,826.88
2019-02-15T15:21:14.909Z,810.00
2019-02-15T15:24:18.146Z,759.38
2019-02-15T15:25:50.690Z,635.63
2019-02-15T15:27:22.578Z,607.50
2019-02-15T15:28:54.160Z,618.75
2019-02-15T15:30:25.704Z,652.50
2019-02-15T15:33:29.065Z,849.38
2019-02-15T15:36:33.288Z,821.25
2019-02-15T15:38:04.925Z,787.50
2019-02-15T15:39:36.356Z,466.88
2019-02-15T15:42:40.203Z,382.50
2019-02-15T15:44:11.835Z,382.50
2019-02-15T15:45:43.675Z,478.13
2019-02-15T15:47:15.468Z,354.38
2019-02-15T15:50:18.931Z,320.63
2019-02-15T15:51:50.872Z,292.50
2019-02-15T15:53:22.689Z,258.75
2019-02-15T15:54:57.673Z,286.88
2019-02-15T15:56:26.592Z,354.38
2019-02-15T15:57:58.122Z,511.88
2019-02-15T15:59:30.338Z,646.88
2019-02-15T16:01:01.818Z,585.00
2019-02-15T16:02:33.646Z,793.13
2019-02-15T16:05:37.483Z,680.63
2019-02-15T16:07:08.710Z,556.88
2019-02-15T16:10:12.620Z,461.25
2019-02-15T16:11:44.708Z,315.00
2019-02-15T16:13:15.974Z,247.50
2019-02-15T16:14:48.075Z,225.00
2019-02-15T16:16:19.654Z,219.38
2019-02-15T16:19:23.619Z,146.25
2019-02-15T16:20:55.040Z,163.13
2019-02-15T16:22:27.149Z,225.00
2019-02-15T16:23:58.698Z,191.25
2019-02-15T16:27:02.410Z,146.25
2019-02-15T16:28:34.382Z,168.75
2019-02-15T16:36:13.159Z,264.38
2019-02-15T16:37:45.182Z,236.25
2019-02-15T16:39:16.787Z,202.50
2019-02-15T16:40:49.540Z,180.00
2019-02-15T16:42:20.517Z,146.25
2019-02-15T16:43:52.231Z,168.75
2019-02-15T16:45:24.041Z,168.75
2019-02-15T16:46:55.857Z,180.00
2019-02-15T16:48:27.675Z,185.63
2019-02-15T16:49:59.544Z,331.88
2019-02-15T16:51:31.603Z,444.38
2019-02-15T16:53:03.109Z,534.38
2019-02-15T16:54:34.926Z,601.88
2019-02-15T16:57:38.550Z,658.13
2019-02-15T16:59:10.399Z,658.13
2019-02-15T17:00:42.949Z,781.88
2019-02-15T17:02:14.582Z,708.75
2019-02-15T17:03:45.922Z,871.88
2019-02-15T17:05:18.062Z,748.13
2019-02-15T17:08:21.659Z,703.13
2019-02-15T17:09:53.287Z,590.63
2019-02-15T17:11:25.432Z,421.88
2019-02-15T17:12:56.747Z,303.75
2019-02-15T17:14:28.566Z,315.00
2019-02-15T17:16:00.340Z,253.13
2019-02-15T17:17:32.155Z,191.25
2019-02-15T17:19:04.375Z,213.75
2019-02-15T17:20:36.199Z,303.75
2019-02-15T17:22:07.848Z,258.75
2019-02-15T17:23:39.967Z,241.88
2019-02-15T17:25:11.236Z,180.00
2019-02-15T17:28:15.153Z,286.88
2019-02-15T17:29:46.860Z,916.88
2019-02-15T17:31:18.715Z,849.38
2019-02-15T17:32:50.488Z,697.50
2019-02-15T17:34:22.203Z,551.25
2019-02-15T17:35:55.069Z,388.13
2019-02-15T17:37:26.041Z,360.00
2019-02-15T17:40:29.768Z,298.13
2019-02-15T17:42:01.178Z,253.13
2019-02-15T17:43:33.157Z,360.00
2019-02-15T17:45:04.841Z,326.25
2019-02-15T17:48:08.749Z,202.50
2019-02-15T17:49:40.759Z,281.25
2019-02-15T17:51:12.372Z,230.63
2019-02-15T17:52:43.890Z,258.75
2019-02-15T17:54:15.849Z,376.88
2019-02-15T17:55:47.568Z,421.88
2019-02-15T17:57:19.329Z,472.50
2019-02-15T17:58:51.654Z,551.25
2019-02-15T18:00:23.058Z,663.75
2019-02-15T18:03:26.791Z,815.63
2019-02-15T18:04:58.404Z,770.63
2019-02-15T18:06:30.221Z,765.00
2019-02-15T18:09:34.106Z,540.00
2019-02-15T18:11:05.873Z,433.13
2019-02-15T18:12:37.688Z,472.50
2019-02-15T18:14:09.308Z,393.75
2019-02-15T18:15:41.426Z,416.25
2019-02-15T18:17:12.991Z,832.50
2019-02-15T18:18:45.054Z,1096.88
2019-02-15T18:20:16.568Z,1158.75
2019-02-15T18:21:48.417Z,1102.50
2019-02-15T18:24:52.684Z,1096.88
2019-02-15T18:26:23.887Z,1029.38
2019-02-15T18:27:55.654Z,1248.75
2019-02-15T18:29:27.473Z,1440.00
2019-02-15T18:30:59.695Z,1170.00
2019-02-15T18:32:31.109Z,916.88
2019-02-15T18:34:03.131Z,776.25
2019-02-15T18:35:34.948Z,646.88
2019-02-15T18:37:07.200Z,556.88
2019-02-15T18:38:40.673Z,523.13
2019-02-15T18:40:10.226Z,523.13
2019-02-15T18:43:13.971Z,495.00
2019-02-15T18:46:17.472Z,410.63
2019-02-15T18:47:49.645Z,388.13
2019-02-15T18:49:21.109Z,360.00
2019-02-15T18:50:52.925Z,354.38
2019-02-15T18:52:24.806Z,405.00
2019-02-15T18:53:56.621Z,540.00
2019-02-15T18:55:28.863Z,720.00
2019-02-15T18:57:00.198Z,973.13
2019-02-15T18:58:32.545Z,2154.38
2019-02-15T19:00:04.027Z,1400.63
2019-02-15T19:01:35.769Z,1102.50
2019-02-15T19:03:07.603Z,877.50
2019-02-15T19:04:39.394Z,1029.38
2019-02-15T19:06:11.345Z,1158.75
2019-02-15T19:07:42.911Z,1063.13
2019-02-15T19:09:14.891Z,1063.13
2019-02-15T19:10:46.550Z,984.38
2019-02-15T19:12:18.397Z,888.75
2019-02-15T19:13:50.378Z,815.63
2019-02-15T19:15:22.045Z,855.00
2019-02-15T19:16:54.179Z,911.25
2019-02-15T19:18:25.767Z,995.63
2019-02-15T19:19:57.771Z,950.63
2019-02-15T19:21:30.035Z,843.75
2019-02-15T19:23:01.353Z,714.38
2019-02-15T19:24:33.036Z,635.63
2019-02-15T19:26:05.011Z,573.75
2019-02-15T19:27:36.762Z,562.50
2019-02-15T19:29:08.480Z,568.13
2019-02-15T19:30:40.236Z,646.88
2019-02-15T19:32:12.196Z,736.88
2019-02-15T19:33:44.033Z,793.13
2019-02-15T19:35:15.704Z,826.88
2019-02-15T19:36:47.581Z,1215.00
2019-02-15T19:38:19.331Z,1091.25
2019-02-15T19:39:51.134Z,928.13
2019-02-15T19:41:22.967Z,939.38
2019-02-15T19:42:54.782Z,793.13
2019-02-15T19:44:26.884Z,630.00
2019-02-15T19:45:58.369Z,523.13
2019-02-15T19:47:30.954Z,461.25
2019-02-15T19:49:02.311Z,472.50
2019-02-15T19:50:34.210Z,438.75
2019-02-15T19:52:05.688Z,393.75
2019-02-15T19:53:37.676Z,399.38
2019-02-15T19:56:41.098Z,298.13
2019-02-15T19:58:13.200Z,292.50
2019-02-15T19:59:53.495Z,270.00
2019-02-15T20:01:16.853Z,270.00
2019-02-15T20:02:48.372Z,264.38
2019-02-15T20:04:20.518Z,264.38
2019-02-15T20:05:52.305Z,236.25
2019-02-15T20:07:24.080Z,236.25
2019-02-15T20:08:56.125Z,230.63
2019-02-15T20:10:27.486Z,202.50
2019-02-15T20:11:59.316Z,191.25
2019-02-15T20:13:31.099Z,185.63
2019-02-15T20:15:02.935Z,146.25
2019-02-15T20:16:34.793Z,118.13
2019-02-15T20:18:06.837Z,129.38
2019-02-15T20:19:48.014Z,135.00
2019-02-15T20:21:10.174Z,157.50
2019-02-15T20:22:42.005Z,146.25
2019-02-15T20:24:13.836Z,135.00
2019-02-15T20:25:45.915Z,112.50
2019-02-15T20:27:17.551Z,90.00
2019-02-15T20:28:49.248Z,73.13
2019-02-15T20:30:21.322Z,67.50
2019-02-15T20:31:52.972Z,67.50
2019-02-15T20:33:24.686Z,50.63
2019-02-15T20:36:28.349Z,39.38
2019-02-15T20:38:00.168Z,33.75
2019-02-15T20:41:03.791Z,33.75
2019-02-15T20:42:36.108Z,33.75
2019-02-15T20:44:07.393Z,33.75
2019-02-15T20:45:39.217Z,33.75
2019-02-15T20:47:11.136Z,28.13
2019-02-15T20:48:43.586Z,28.13
2019-02-15T20:50:14.649Z,22.50
2019-02-15T20:51:46.466Z,22.50
2019-02-15T20:53:18.306Z,22.50
2019-02-15T20:54:50.100Z,28.13
2019-02-15T20:56:21.924Z,28.13
2019-02-15T20:57:53.723Z,28.13
2019-02-15T20:59:25.537Z,22.50
2019-02-15T21:00:57.356Z,22.50
2019-02-15T21:02:29.166Z,16.88
2019-02-15T21:04:00.980Z,11.25
2019-02-15T21:05:32.898Z,11.25